Time;durP1;ratioP1;P1;durP2;ratioP2;P2;SDS_P1;SDS_P2;PMS_P1;PMS_P2;Temp;Humidity;BMP_temperature;BMP_pressure;BME280_temperature;BME280_humidity;BME280_pressure;Samples;Min_cycle;Max_cycle;Signal;HPM_P1;HPM_P2
2021/11/18 00:02:23;;;;;;;26.45;4.60;;;;;;;7.99;93.68;102788.13;5015196;28;20332;-68
2021/11/18 00:04:51;;;;;;;27.10;5.05;;;;;;;7.94;93.79;102784.59;5018887;28;20116;-68
2021/11/18 00:07:16;;;;;;;26.58;5.75;;;;;;;7.83;93.75;102785.38;5020324;28;20022;-68
2021/11/18 00:09:42;;;;;;;26.15;5.47;;;;;;;7.85;94.71;102786.28;5026272;28;20120;-67
2021/11/18 00:12:09;;;;;;;22.75;4.95;;;;;;;7.91;94.67;102786.34;5031456;28;20025;-67
2021/11/18 00:14:35;;;;;;;18.23;4.28;;;;;;;7.95;94.32;102787.25;5032291;28;20022;-67
2021/11/18 00:17:00;;;;;;;31.15;4.88;;;;;;;7.92;94.25;102789.81;5030989;28;20097;-67
2021/11/18 00:19:25;;;;;;;24.48;4.75;;;;;;;7.87;94.18;102784.53;5031825;28;20037;-68
2021/11/18 00:21:51;;;;;;;25.00;4.38;;;;;;;7.90;94.65;102792.41;5031734;28;20017;-68
2021/11/18 00:24:16;;;;;;;21.50;4.43;;;;;;;7.84;94.32;102792.34;5031991;28;20029;-67
2021/11/18 00:26:41;;;;;;;28.70;5.00;;;;;;;7.78;94.41;102792.28;5019095;28;20025;-67
2021/11/18 00:29:07;;;;;;;33.10;5.15;;;;;;;7.71;94.86;102799.16;5029094;28;20021;-67
2021/11/18 00:31:35;;;;;;;27.70;5.03;;;;;;;7.70;95.68;102802.66;5031825;28;20363;-67
2021/11/18 00:34:02;;;;;;;28.88;4.90;;;;;;;7.71;95.66;102796.56;5026410;28;20020;-67
2021/11/18 00:36:28;;;;;;;27.95;4.35;;;;;;;7.65;95.27;102800.84;5020356;28;20029;-70
2021/11/18 00:38:53;;;;;;;26.60;4.93;;;;;;;7.52;95.22;102803.31;5030975;28;20075;-69
2021/11/18 00:41:20;;;;;;;28.08;4.45;;;;;;;7.48;95.95;102795.44;5031927;28;20504;-66
2021/11/18 00:43:46;;;;;;;24.73;5.10;;;;;;;7.43;96.17;102798.03;5031737;28;20045;-68
2021/11/18 00:46:12;;;;;;;30.13;5.47;;;;;;;7.36;96.31;102807.50;5029868;28;20021;-67
2021/11/18 00:48:39;;;;;;;29.23;5.60;;;;;;;7.32;96.89;102807.44;5032005;28;20504;-68
2021/11/18 00:51:08;;;;;;;37.28;5.78;;;;;;;7.26;97.53;102797.81;5030786;28;20022;-68
2021/11/18 00:53:46;;;;;;;25.38;4.78;;;;;;;7.33;98.11;102796.13;5021457;28;20100;-68
2021/11/18 00:56:11;;;;;;;27.08;5.47;;;;;;;7.38;97.65;102790.13;5027853;28;20036;-68
2021/11/18 00:58:37;;;;;;;25.55;5.22;;;;;;;7.37;97.45;102784.91;5031571;28;20029;-68
2021/11/18 01:01:03;;;;;;;34.95;5.18;;;;;;;7.51;97.44;102791.13;5029348;28;20053;-68
2021/11/18 01:03:30;;;;;;;30.48;5.32;;;;;;;7.55;96.81;102797.25;5030125;28;20029;-68
2021/11/18 01:05:56;;;;;;;24.15;4.28;;;;;;;7.60;96.58;102803.41;5031008;28;20112;-67
2021/11/18 01:08:22;;;;;;;28.65;4.70;;;;;;;7.72;96.03;102810.50;5029930;28;20059;-67
2021/11/18 01:10:54;;;;;;;33.20;4.40;;;;;;;7.76;95.67;102820.13;5030638;28;20438;-67
2021/11/18 01:13:21;;;;;;;24.77;4.57;;;;;;;7.77;95.33;102808.81;5017053;28;20056;-67
2021/11/18 01:15:48;;;;;;;30.05;5.22;;;;;;;7.79;95.36;102808.84;5030574;28;20039;-68
2021/11/18 01:18:14;;;;;;;31.92;5.57;;;;;;;7.94;94.72;102811.63;5027106;28;20482;-68
2021/11/18 01:20:41;;;;;;;25.13;4.85;;;;;;;8.00;94.04;102800.31;5027149;28;20017;-68
2021/11/18 01:23:10;;;;;;;24.80;3.95;;;;;;;8.04;94.01;102804.75;5028429;28;20045;-68
2021/11/18 01:25:36;;;;;;;24.77;5.25;;;;;;;8.07;93.46;102803.03;5028062;28;20079;-68
2021/11/18 01:28:03;;;;;;;32.45;5.65;;;;;;;8.04;93.64;102802.13;5027975;28;20026;-67
2021/11/18 01:30:31;;;;;;;26.17;4.45;;;;;;;7.98;93.45;102802.06;5027435;28;20025;-67
2021/11/18 01:32:57;;;;;;;26.45;4.35;;;;;;;7.88;93.88;102804.56;5026815;28;20017;-68
2021/11/18 01:35:22;;;;;;;27.90;4.68;;;;;;;7.80;94.68;102807.97;5013316;28;20403;-67
2021/11/18 01:37:47;;;;;;;24.85;4.40;;;;;;;7.80;94.98;102814.09;5028132;28;20051;-67
2021/11/18 01:40:18;;;;;;;27.10;4.22;;;;;;;7.79;94.98;102812.34;5027579;28;20083;-68
2021/11/18 01:42:43;;;;;;;23.83;4.55;;;;;;;7.72;94.90;102800.94;5012585;28;20014;-67
2021/11/18 01:45:11;;;;;;;29.73;4.40;;;;;;;7.63;94.99;102805.19;5026312;28;20042;-67
2021/11/18 01:47:36;;;;;;;27.08;5.38;;;;;;;7.57;95.79;102819.91;5012376;28;20024;-67
2021/11/18 01:50:03;;;;;;;27.30;5.25;;;;;;;7.53;95.74;102825.09;5027614;28;20017;-68
2021/11/18 01:52:29;;;;;;;29.48;5.45;;;;;;;7.45;96.38;102825.00;5027275;28;20033;-67
2021/11/18 01:54:55;;;;;;;31.33;4.95;;;;;;;7.52;96.71;102829.44;5026069;28;20040;-67
2021/11/18 01:57:27;;;;;;;23.92;5.00;;;;;;;7.65;96.46;102837.41;5012704;28;20541;-67
2021/11/18 01:59:54;;;;;;;31.00;5.72;;;;;;;7.75;95.71;102832.31;5007686;28;20049;-67
2021/11/18 02:02:22;;;;;;;27.90;4.53;;;;;;;7.85;95.37;102827.19;4998876;28;20051;-67
2021/11/18 02:05:07;;;;;;;27.95;4.45;;;;;;;7.91;94.61;102841.19;5025745;28;20036;-67
2021/11/18 02:07:33;;;;;;;25.52;4.57;;;;;;;8.00;94.31;102843.03;5027285;28;20137;-67
2021/11/18 02:09:58;;;;;;;30.30;5.18;;;;;;;8.06;93.83;102847.44;5026088;28;20032;-67
2021/11/18 02:12:29;;;;;;;35.92;5.50;;;;;;;8.08;93.74;102845.72;5026862;28;20036;-68
2021/11/18 02:14:55;;;;;;;25.10;4.30;;;;;;;8.08;93.73;102843.09;5022861;28;20021;-66
2021/11/18 02:17:24;;;;;;;25.45;4.63;;;;;;;8.13;93.74;102841.41;5017334;28;20049;-68
2021/11/18 02:20:04;;;;;;;23.92;4.40;;;;;;;8.16;93.38;102838.84;5005799;28;20056;-66
2021/11/18 02:22:31;;;;;;;28.63;4.70;;;;;;;8.18;93.45;102826.63;5012378;28;20128;-66
2021/11/18 02:24:59;;;;;;;32.78;5.57;;;;;;;8.20;93.42;102832.75;5014305;28;20026;-66
2021/11/18 02:27:28;;;;;;;22.02;4.38;;;;;;;8.21;93.20;102837.13;5024304;28;20021;-68
2021/11/18 02:29:56;;;;;;;22.58;4.90;;;;;;;8.21;93.16;102837.13;5024467;28;20029;-68
2021/11/18 02:32:25;;;;;;;28.42;4.65;;;;;;;8.24;93.00;102842.38;5025013;28;20024;-67
2021/11/18 02:34:54;;;;;;;26.80;4.60;;;;;;;8.25;93.18;102845.88;5025552;28;20105;-68
2021/11/18 02:37:20;;;;;;;25.70;5.13;;;;;;;8.24;93.16;102844.97;5025113;28;20120;-68
2021/11/18 02:39:45;;;;;;;24.08;5.30;;;;;;;8.22;93.25;102846.72;5017636;28;20053;-68
2021/11/18 02:42:12;;;;;;;34.03;5.32;;;;;;;8.21;93.16;102844.06;5021029;28;20051;-68
2021/11/18 02:44:39;;;;;;;26.55;5.15;;;;;;;8.23;93.30;102839.75;5026354;28;20080;-67
2021/11/18 02:47:11;;;;;;;23.33;4.53;;;;;;;8.23;93.27;102840.63;5025412;28;20025;-68
2021/11/18 02:49:38;;;;;;;20.95;4.18;;;;;;;8.27;93.18;102848.50;5026538;28;20048;-67
2021/11/18 02:52:03;;;;;;;26.27;5.70;;;;;;;8.24;93.42;102837.16;5025402;28;20036;-67
2021/11/18 02:54:29;;;;;;;24.13;4.65;;;;;;;8.24;93.61;102836.28;5026359;28;20021;-67
2021/11/18 02:56:55;;;;;;;29.92;5.00;;;;;;;8.28;93.69;102837.19;5026283;28;20037;-68
2021/11/18 02:59:21;;;;;;;26.15;4.65;;;;;;;8.32;93.28;102833.72;5026101;28;20028;-67
2021/11/18 03:01:46;;;;;;;22.95;4.40;;;;;;;8.37;93.01;102830.31;5026221;28;20033;-67
2021/11/18 03:04:13;;;;;;;22.08;5.10;;;;;;;8.40;92.80;102830.31;5026267;28;20018;-67
2021/11/18 03:06:39;;;;;;;28.88;4.55;;;;;;;8.42;92.83;102829.44;5012564;28;20116;-68
2021/11/18 03:09:04;;;;;;;30.38;5.15;;;;;;;8.44;92.68;102838.19;5026574;28;20056;-67
2021/11/18 03:11:31;;;;;;;20.83;4.65;;;;;;;8.42;92.59;102835.53;5025584;28;20048;-67
2021/11/18 03:13:56;;;;;;;24.00;4.85;;;;;;;8.43;92.67;102836.44;5015035;28;20022;-68
2021/11/18 03:16:22;;;;;;;25.75;4.20;;;;;;;8.42;92.88;102835.53;5020843;28;20039;-67
2021/11/18 03:18:48;;;;;;;27.17;4.45;;;;;;;8.38;92.94;102828.53;5007830;28;20030;-67
2021/11/18 03:21:16;;;;;;;19.05;3.88;;;;;;;8.40;93.14;102827.69;5026130;28;20025;-67
2021/11/18 03:23:42;;;;;;;24.48;4.50;;;;;;;8.45;92.92;102825.13;5016818;28;20424;-68
2021/11/18 03:26:08;;;;;;;20.83;4.28;;;;;;;8.49;92.99;102828.69;5025653;28;20025;-67
2021/11/18 03:28:34;;;;;;;24.98;4.60;;;;;;;8.46;92.95;102821.69;5024983;28;20040;-67
2021/11/18 03:31:03;;;;;;;28.48;4.78;;;;;;;8.44;93.06;102827.72;5018959;28;20033;-67
2021/11/18 03:33:33;;;;;;;28.33;5.50;;;;;;;8.42;93.30;102827.69;5018977;28;20105;-67
2021/11/18 03:35:59;;;;;;;29.73;4.90;;;;;;;8.38;93.17;102828.53;5024134;28;20417;-67
2021/11/18 03:38:26;;;;;;;27.15;5.13;;;;;;;8.34;93.45;102834.63;5025362;28;20082;-67
2021/11/18 03:40:52;;;;;;;24.20;4.13;;;;;;;8.30;93.63;102830.22;5024369;28;20614;-68
2021/11/18 03:43:21;;;;;;;21.98;4.38;;;;;;;8.26;93.65;102828.44;5015791;28;20026;-67
2021/11/18 03:45:48;;;;;;;24.83;4.90;;;;;;;8.24;94.13;102828.44;5018971;28;20405;-67
2021/11/18 03:48:16;;;;;;;23.50;4.28;;;;;;;8.17;93.85;102824.00;5021034;28;20050;-67
2021/11/18 03:50:43;;;;;;;21.63;4.03;;;;;;;8.11;94.61;102830.03;5034763;28;20018;-69
2021/11/18 03:53:09;;;;;;;24.48;4.70;;;;;;;8.05;94.37;102835.22;5027703;28;20089;-69
2021/11/18 03:55:34;;;;;;;17.80;3.90;;;;;;;7.95;94.50;102830.75;5026687;28;20048;-68
2021/11/18 03:57:59;;;;;;;24.23;4.25;;;;;;;7.99;94.90;102829.94;5024863;28;20470;-69
2021/11/18 04:00:27;;;;;;;19.48;4.30;;;;;;;7.97;94.66;102831.66;5026597;28;20548;-69
2021/11/18 04:02:53;;;;;;;23.58;4.05;;;;;;;7.93;94.84;102829.91;5026099;28;20010;-68
2021/11/18 04:05:19;;;;;;;24.85;4.45;;;;;;;7.94;94.89;102829.00;5025072;28;20082;-69
2021/11/18 04:07:44;;;;;;;27.35;4.50;;;;;;;7.97;94.09;102832.53;5025864;28;20028;-68
2021/11/18 04:10:13;;;;;;;26.90;4.22;;;;;;;7.96;93.92;102837.75;5026827;28;20115;-69
2021/11/18 04:12:39;;;;;;;19.60;4.10;;;;;;;8.02;93.25;102835.19;5025250;28;20025;-69
2021/11/18 04:15:07;;;;;;;26.80;4.20;;;;;;;8.08;92.72;102840.50;5026372;28;20234;-68
2021/11/18 04:17:32;;;;;;;23.20;3.78;;;;;;;8.12;92.01;102836.16;5023574;28;20040;-67
2021/11/18 04:19:58;;;;;;;23.77;4.40;;;;;;;8.08;91.87;102841.34;5025016;28;20034;-67
2021/11/18 04:22:23;;;;;;;21.50;3.85;;;;;;;8.05;92.04;102841.34;5024403;28;20104;-68
2021/11/18 04:24:49;;;;;;;24.60;4.22;;;;;;;8.01;92.02;102842.19;5013091;28;20038;-67
2021/11/18 04:27:15;;;;;;;23.77;4.32;;;;;;;7.99;91.87;102835.16;5022579;28;20024;-67
2021/11/18 04:29:40;;;;;;;20.95;4.18;;;;;;;7.99;91.79;102830.81;5023529;28;20021;-66
2021/11/18 04:32:13;;;;;;;27.60;4.70;;;;;;;8.04;91.32;102828.25;5024568;28;20032;-67
2021/11/18 04:34:38;;;;;;;22.92;4.00;;;;;;;7.99;91.26;102819.47;5024590;28;20085;-68
2021/11/18 04:37:04;;;;;;;28.73;4.78;;;;;;;7.92;91.50;102818.56;5024581;28;20071;-66
2021/11/18 04:39:31;;;;;;;23.13;4.40;;;;;;;7.89;91.99;102802.84;5023550;28;20377;-67
2021/11/18 04:41:56;;;;;;;22.05;4.05;;;;;;;7.87;92.24;102813.28;5023576;28;20029;-67
2021/11/18 04:44:22;;;;;;;20.60;4.57;;;;;;;7.82;92.09;102808.88;5022944;28;20547;-67
2021/11/18 04:46:48;;;;;;;21.70;3.88;;;;;;;7.77;92.61;102808.81;5023388;28;20104;-67
2021/11/18 04:49:13;;;;;;;27.23;4.10;;;;;;;7.77;92.81;102814.03;5024501;28;20648;-66
2021/11/18 04:51:39;;;;;;;13.75;3.17;;;;;;;7.77;92.53;102808.81;5024715;28;20083;-66
2021/11/18 04:54:05;;;;;;;21.90;3.70;;;;;;;7.74;92.51;102794.00;5027541;28;20018;-67
2021/11/18 04:56:32;;;;;;;25.63;5.43;;;;;;;7.72;92.96;102795.72;5028371;28;20426;-66
2021/11/18 04:58:58;;;;;;;19.00;4.05;;;;;;;7.61;93.83;102796.47;5028496;28;20033;-67
2021/11/18 05:01:24;;;;;;;25.75;4.80;;;;;;;7.48;94.38;102800.66;5022799;28;20117;-67
2021/11/18 05:03:51;;;;;;;23.35;4.57;;;;;;;7.37;94.64;102808.38;5019500;28;20108;-67
2021/11/18 05:06:16;;;;;;;23.77;4.32;;;;;;;7.25;95.83;102803.88;5027241;28;20017;-66
2021/11/18 05:08:42;;;;;;;23.33;4.70;;;;;;;7.15;96.98;102810.72;5028208;28;20013;-66
2021/11/18 05:11:08;;;;;;;24.92;4.75;;;;;;;7.10;97.46;102815.88;5027356;28;20048;-67
2021/11/18 05:13:33;;;;;;;20.02;4.70;;;;;;;7.07;97.88;102808.00;5027119;28;20017;-68
2021/11/18 05:16:02;;;;;;;31.63;4.80;;;;;;;7.07;98.37;102820.16;5028026;28;20037;-67
2021/11/18 05:18:28;;;;;;;20.27;4.75;;;;;;;7.04;98.49;102817.53;5022230;28;20117;-67
2021/11/18 05:20:54;;;;;;;27.40;5.32;;;;;;;7.04;98.49;102812.31;5020594;28;20036;-67
2021/11/18 05:23:20;;;;;;;23.23;4.38;;;;;;;7.01;98.34;102814.84;5020892;28;20029;-67
2021/11/18 05:25:45;;;;;;;29.23;4.53;;;;;;;6.97;99.08;102818.28;5027545;28;20021;-66
2021/11/18 05:28:11;;;;;;;25.98;4.55;;;;;;;6.96;99.26;102825.25;5027955;28;20018;-67
2021/11/18 05:30:36;;;;;;;22.23;4.55;;;;;;;6.97;99.73;102813.97;5027588;28;20029;-67
2021/11/18 05:33:06;;;;;;;26.50;4.57;;;;;;;7.01;100.00;102807.94;5027846;28;20025;-67
2021/11/18 05:35:33;;;;;;;23.02;4.32;;;;;;;7.07;99.94;102814.94;5026494;28;20107;-67
2021/11/18 05:37:59;;;;;;;22.35;4.78;;;;;;;7.09;99.71;102821.06;5027928;28;20132;-68
2021/11/18 05:40:25;;;;;;;24.40;4.50;;;;;;;7.08;99.80;102814.09;5027194;28;20108;-67
2021/11/18 05:42:51;;;;;;;23.98;5.35;;;;;;;7.10;99.61;102826.31;5027337;28;20021;-66
2021/11/18 05:45:20;;;;;;;24.00;4.68;;;;;;;7.09;99.87;102815.84;5026475;28;20432;-67
2021/11/18 05:47:45;;;;;;;24.08;4.47;;;;;;;7.11;99.94;102808.94;5027036;28;20155;-67
2021/11/18 05:50:11;;;;;;;31.85;5.28;;;;;;;7.11;100.00;102814.16;5016426;28;20112;-67
2021/11/18 05:52:37;;;;;;;27.50;4.70;;;;;;;7.09;100.00;102821.97;5008659;28;20018;-68
2021/11/18 05:55:04;;;;;;;30.88;5.38;;;;;;;7.13;100.00;102807.19;5017522;28;20032;-66
2021/11/18 05:57:29;;;;;;;26.27;5.07;;;;;;;7.19;100.00;102811.63;5021407;28;20089;-67
2021/11/18 05:59:54;;;;;;;26.20;5.25;;;;;;;7.26;100.00;102827.38;5027630;28;20049;-67
2021/11/18 06:02:20;;;;;;;21.63;4.90;;;;;;;7.27;100.00;102823.91;5024665;28;20508;-67
2021/11/18 06:04:45;;;;;;;27.23;4.93;;;;;;;7.26;100.00;102822.16;5026427;28;20474;-66
2021/11/18 06:07:11;;;;;;;26.83;5.20;;;;;;;7.24;100.00;102828.22;5025696;28;20573;-68
2021/11/18 06:09:37;;;;;;;31.88;5.00;;;;;;;7.19;100.00;102825.53;5026826;28;20025;-67
2021/11/18 06:12:02;;;;;;;31.20;4.93;;;;;;;7.15;100.00;102817.69;5026314;28;20393;-67
2021/11/18 06:14:29;;;;;;;26.98;5.45;;;;;;;7.11;100.00;102820.22;5025700;28;20021;-66
2021/11/18 06:16:54;;;;;;;34.90;5.53;;;;;;;7.06;100.00;102834.09;5026666;28;20032;-68
2021/11/18 06:19:20;;;;;;;30.55;5.47;;;;;;;7.03;100.00;102832.31;5025409;28;20034;-67
2021/11/18 06:21:47;;;;;;;34.45;5.68;;;;;;;7.02;100.00;102832.28;5026230;28;20030;-68
2021/11/18 06:24:14;;;;;;;25.88;5.90;;;;;;;6.98;100.00;102826.13;5026537;28;20075;-67
2021/11/18 06:26:40;;;;;;;29.15;5.22;;;;;;;6.94;100.00;102822.59;5026805;28;20029;-69
2021/11/18 06:29:06;;;;;;;25.17;4.75;;;;;;;6.95;100.00;102832.19;5025830;28;20040;-66
2021/11/18 06:31:32;;;;;;;23.55;5.22;;;;;;;7.02;100.00;102827.94;5027129;28;20033;-67
2021/11/18 06:33:57;;;;;;;30.27;5.10;;;;;;;7.01;100.00;102825.28;5023396;28;20370;-67
2021/11/18 06:36:23;;;;;;;34.38;5.45;;;;;;;6.98;100.00;102831.34;5015961;28;20529;-66
2021/11/18 06:38:50;;;;;;;29.67;5.43;;;;;;;6.95;100.00;102826.09;5025080;28;20405;-66
2021/11/18 06:41:17;;;;;;;24.85;4.65;;;;;;;6.92;100.00;102837.38;5014189;28;20017;-67
2021/11/18 06:43:44;;;;;;;26.73;5.82;;;;;;;6.89;100.00;102832.09;5027292;28;20184;-67
2021/11/18 06:46:09;;;;;;;26.23;5.63;;;;;;;6.88;100.00;102821.66;5024849;28;20693;-65
2021/11/18 06:48:35;;;;;;;34.85;5.53;;;;;;;6.87;100.00;102831.22;5005096;28;20026;-68
2021/11/18 06:51:07;;;;;;;31.50;5.38;;;;;;;6.90;100.00;102833.84;5023223;28;20448;-67
2021/11/18 06:53:34;;;;;;;23.25;4.50;;;;;;;6.93;100.00;102831.31;5027148;28;20028;-68
2021/11/18 06:56:00;;;;;;;29.95;5.30;;;;;;;7.03;100.00;102840.16;5025760;28;20049;-68
2021/11/18 06:58:26;;;;;;;22.90;4.40;;;;;;;7.10;100.00;102848.94;5026902;28;20034;-68
2021/11/18 07:00:51;;;;;;;26.58;5.05;;;;;;;7.16;100.00;102851.63;5025869;28;20126;-67
2021/11/18 07:03:17;;;;;;;26.83;4.88;;;;;;;7.21;100.00;102856.91;5027512;28;20025;-67
2021/11/18 07:05:43;;;;;;;31.67;5.05;;;;;;;7.27;100.00;102870.03;5027327;28;20029;-68
2021/11/18 07:08:08;;;;;;;23.20;5.03;;;;;;;7.29;100.00;102877.88;5025345;28;20021;-68
2021/11/18 07:10:35;;;;;;;27.00;5.00;;;;;;;7.34;100.00;102891.88;5028317;28;20021;-68
2021/11/18 07:13:00;;;;;;;26.08;5.57;;;;;;;7.35;100.00;102870.13;5027527;28;20036;-67
2021/11/18 07:15:29;;;;;;;29.40;5.88;;;;;;;7.37;100.00;102871.91;5023561;28;20025;-68
2021/11/18 07:17:55;;;;;;;24.02;4.68;;;;;;;7.40;100.00;102866.72;5024382;28;20025;-67
2021/11/18 07:20:20;;;;;;;35.80;5.10;;;;;;;7.43;100.00;102871.13;5023225;28;20023;-67
2021/11/18 07:22:46;;;;;;;26.70;4.85;;;;;;;7.48;100.00;102879.00;5025493;28;20094;-67
2021/11/18 07:25:15;;;;;;;23.02;4.65;;;;;;;7.56;100.00;102887.81;5025770;28;20033;-67
2021/11/18 07:27:40;;;;;;;25.90;4.50;;;;;;;7.58;100.00;102889.59;5026341;28;20025;-68
2021/11/18 07:30:08;;;;;;;33.30;6.10;;;;;;;7.57;100.00;102887.81;5026131;28;20056;-68
2021/11/18 07:32:33;;;;;;;26.15;5.20;;;;;;;7.55;100.00;102888.66;5025264;28;20856;-68
2021/11/18 07:34:59;;;;;;;32.03;5.78;;;;;;;7.57;100.00;102887.81;5026244;28;20056;-68
2021/11/18 07:37:25;;;;;;;36.45;5.57;;;;;;;7.56;100.00;102888.69;5024751;28;20069;-67
2021/11/18 07:39:50;;;;;;;25.98;5.35;;;;;;;7.56;100.00;102888.69;5025851;28;20121;-67
2021/11/18 07:42:15;;;;;;;25.75;5.10;;;;;;;7.57;100.00;102894.78;5025417;28;20104;-67
2021/11/18 07:44:41;;;;;;;30.05;6.10;;;;;;;7.54;100.00;102890.41;5024053;28;20579;-68
2021/11/18 07:47:06;;;;;;;21.98;5.32;;;;;;;7.57;100.00;102886.97;5022119;28;20031;-67
2021/11/18 07:49:32;;;;;;;31.27;6.93;;;;;;;7.59;100.00;102880.00;5022841;28;20028;-67
2021/11/18 07:51:57;;;;;;;24.20;5.13;;;;;;;7.63;100.00;102873.97;5007230;28;20081;-67
2021/11/18 07:54:24;;;;;;;27.52;4.90;;;;;;;7.73;100.00;102874.97;5023707;28;20233;-67
2021/11/18 07:56:50;;;;;;;36.70;4.93;;;;;;;7.75;100.00;102881.97;5025108;28;20203;-68
2021/11/18 07:59:16;;;;;;;30.98;6.13;;;;;;;7.78;99.77;102893.28;5023273;28;20041;-67
2021/11/18 08:01:42;;;;;;;30.00;5.55;;;;;;;7.77;99.88;102899.41;5037161;28;20048;-67
2021/11/18 08:04:11;;;;;;;33.95;5.38;;;;;;;7.74;99.89;102902.84;5030704;28;20024;-67
2021/11/18 08:06:38;;;;;;;27.77;5.55;;;;;;;7.73;99.82;102886.28;5024358;28;20067;-67
2021/11/18 08:09:04;;;;;;;28.83;6.75;;;;;;;7.68;99.75;102877.50;5033108;28;20025;-68
2021/11/18 08:11:34;;;;;;;22.80;5.18;;;;;;;7.65;100.00;102882.69;5025822;28;20022;-67
2021/11/18 08:14:00;;;;;;;30.05;5.90;;;;;;;7.62;100.00;102881.81;5030998;28;20063;-66
2021/11/18 08:16:26;;;;;;;30.83;5.72;;;;;;;7.62;100.00;102881.81;5027587;28;20030;-66
2021/11/18 08:18:51;;;;;;;23.95;6.20;;;;;;;7.63;100.00;102883.53;5022802;28;20079;-67
2021/11/18 08:21:17;;;;;;;24.38;5.40;;;;;;;7.66;100.00;102899.25;5028141;28;20098;-67
2021/11/18 08:23:43;;;;;;;29.17;5.45;;;;;;;7.71;100.00;102897.56;5027456;28;20031;-67
2021/11/18 08:26:12;;;;;;;35.78;5.60;;;;;;;7.72;99.92;102894.09;5025026;28;20037;-66
2021/11/18 08:28:37;;;;;;;26.55;6.38;;;;;;;7.81;99.83;102890.72;5026964;28;20071;-68
2021/11/18 08:31:03;;;;;;;30.35;6.20;;;;;;;7.87;99.78;102888.19;5024767;28;20444;-67
2021/11/18 08:33:29;;;;;;;27.90;5.47;;;;;;;8.01;99.18;102886.59;5028739;28;20049;-68
2021/11/18 08:35:55;;;;;;;23.08;5.18;;;;;;;8.28;98.19;102895.56;5013560;28;20025;-67
2021/11/18 08:38:22;;;;;;;27.17;5.65;;;;;;;8.60;96.56;102900.25;5027007;28;20044;-67
2021/11/18 08:40:54;;;;;;;31.55;5.45;;;;;;;8.95;94.07;102893.53;5013554;28;20022;-67
2021/11/18 08:43:20;;;;;;;27.05;6.32;;;;;;;9.55;91.38;102880.78;5022829;28;20056;-67
2021/11/18 08:45:46;;;;;;;21.17;5.88;;;;;;;10.32;87.41;102878.34;5028213;28;20024;-67
2021/11/18 08:48:11;;;;;;;25.85;5.32;;;;;;;10.82;84.61;102866.09;5026968;28;20478;-67
2021/11/18 08:50:38;;;;;;;34.40;5.88;;;;;;;10.80;83.19;102878.38;5027474;28;20022;-66
2021/11/18 08:53:05;;;;;;;30.02;6.07;;;;;;;10.76;82.84;102876.59;5026754;28;20377;-66
2021/11/18 08:55:33;;;;;;;23.10;6.07;;;;;;;10.36;84.88;102884.50;5027612;28;20022;-66
2021/11/18 08:57:59;;;;;;;26.60;5.82;;;;;;;9.99;86.23;102885.28;5027083;28;20033;-66
2021/11/18 09:00:30;;;;;;;28.30;6.95;;;;;;;9.71;87.92;102881.69;5026059;28;20135;-67
2021/11/18 09:02:56;;;;;;;23.98;5.38;;;;;;;9.55;88.99;102877.28;5027488;28;20486;-67
2021/11/18 09:05:23;;;;;;;26.60;5.50;;;;;;;9.45;89.71;102879.88;5026555;28;20104;-67
2021/11/18 09:07:49;;;;;;;27.33;5.97;;;;;;;9.33;90.60;102882.44;5026557;28;20025;-67
2021/11/18 09:10:15;;;;;;;24.15;6.40;;;;;;;9.33;91.22;102885.91;5026972;28;20032;-66
2021/11/18 09:12:42;;;;;;;22.65;6.10;;;;;;;9.75;90.55;102873.00;5028021;28;20386;-67
2021/11/18 09:15:09;;;;;;;30.10;7.18;;;;;;;10.49;87.54;102885.38;5025969;28;20017;-67
2021/11/18 09:17:34;;;;;;;24.83;5.28;;;;;;;10.95;83.74;102894.97;5012848;28;20034;-67
2021/11/18 09:20:00;;;;;;;29.75;5.40;;;;;;;11.42;82.01;102882.59;5027747;28;20018;-67
2021/11/18 09:22:25;;;;;;;18.10;5.15;;;;;;;11.69;79.29;102886.84;5025279;28;20758;-67
2021/11/18 09:24:57;;;;;;;30.05;5.43;;;;;;;11.60;79.66;102882.50;5026698;28;20040;-67
2021/11/18 09:27:30;;;;;;;23.23;5.22;;;;;;;11.64;79.44;102888.63;5026190;28;20033;-67
2021/11/18 09:29:56;;;;;;;28.38;6.47;;;;;;;11.48;80.33;102886.97;5016402;28;20025;-67
2021/11/18 09:32:22;;;;;;;25.38;5.55;;;;;;;11.25;80.92;102885.25;5026557;28;20040;-67
2021/11/18 09:34:48;;;;;;;30.90;5.88;;;;;;;11.23;81.78;102887.91;5026515;28;20024;-66
2021/11/18 09:37:14;;;;;;;34.22;6.40;;;;;;;11.36;81.18;102877.34;5025757;28;20030;-67
2021/11/18 09:39:40;;;;;;;25.13;5.75;;;;;;;11.64;79.94;102878.13;5025763;28;20033;-67
2021/11/18 09:42:12;;;;;;;22.17;5.90;;;;;;;11.83;79.29;102885.91;5024827;28;20017;-68
2021/11/18 09:44:45;;;;;;;27.00;6.45;;;;;;;12.01;77.98;102885.84;5025422;28;20033;-68
2021/11/18 09:47:41;;;;;;;21.42;5.47;;;;;;;12.11;77.48;102892.78;5024942;28;20490;-66
2021/11/18 09:50:34;;;;;;;25.42;6.07;;;;;;;12.38;76.22;102906.63;5032225;28;20033;-68
2021/11/18 09:53:18;;;;;;;25.27;5.65;;;;;;;12.57;75.20;102907.34;5015764;28;20554;-68
2021/11/18 09:55:51;;;;;;;28.20;6.78;;;;;;;12.46;75.63;102910.97;5031455;28;20186;-67
2021/11/18 09:58:30;;;;;;;27.90;5.60;;;;;;;12.29;75.79;102905.81;5029298;28;20036;-68
2021/11/18 10:01:33;;;;;;;27.77;5.57;;;;;;;12.33;75.99;102926.84;5036674;28;20035;-69
2021/11/18 10:04:23;;;;;;;28.17;6.65;;;;;;;12.34;76.27;102912.81;5026283;28;20030;-68
2021/11/18 10:06:54;;;;;;;24.88;5.72;;;;;;;12.30;76.70;102923.38;5026373;28;20032;-68
2021/11/18 10:09:31;;;;;;;27.45;5.85;;;;;;;12.52;75.15;102922.31;5028728;28;20120;-68
2021/11/18 10:12:19;;;;;;;26.13;6.07;;;;;;;12.64;75.26;102926.63;5025656;28;20139;-68
2021/11/18 10:14:44;;;;;;;23.60;5.63;;;;;;;12.74;75.18;102911.63;5025730;28;20367;-68
2021/11/18 10:17:09;;;;;;;31.67;6.70;;;;;;;12.68;75.36;102917.81;5027044;28;20022;-68
2021/11/18 10:19:38;;;;;;;23.87;6.13;;;;;;;12.66;75.10;102919.56;5024113;28;20305;-68
2021/11/18 10:22:03;;;;;;;32.00;6.38;;;;;;;12.81;75.25;102913.28;5029910;28;20275;-68
2021/11/18 10:24:33;;;;;;;34.58;7.65;;;;;;;13.26;73.29;102912.88;5028338;28;20074;-67
2021/11/18 10:27:10;;;;;;;27.88;6.82;;;;;;;13.63;71.54;102899.28;5032017;28;20037;-68
2021/11/18 10:29:53;;;;;;;28.33;6.18;;;;;;;14.02;70.21;102902.25;5031232;28;20501;-67
2021/11/18 10:32:23;;;;;;;24.92;6.18;;;;;;;14.38;69.53;102908.78;5021391;28;20037;-68
2021/11/18 10:34:57;;;;;;;33.72;6.63;;;;;;;14.49;68.10;102907.69;5030702;28;20028;-67
2021/11/18 10:37:36;;;;;;;28.42;6.70;;;;;;;14.65;67.54;102904.84;5027456;28;20087;-68
2021/11/18 10:40:10;;;;;;;25.73;6.85;;;;;;;14.43;68.14;102905.16;5023246;28;20433;-69
2021/11/18 10:42:40;;;;;;;;;;;;;;;14.63;67.04;102904.81;5013622;28;20035;-68
2021/11/18 10:45:26;;;;;;;29.05;6.20;;;;;;;14.90;65.50;102907.91;5025594;28;20008;-69
2021/11/18 10:47:52;;;;;;;23.30;5.75;;;;;;;-146.90;100.00;60518.97;5006413;28;20112;-69
2021/11/18 10:50:41;;;;;;;23.07;6.60;;;;;;;-146.90;100.00;60518.97;5017427;28;20092;-69
2021/11/18 10:53:21;;;;;;;27.35;6.22;;;;;;;-146.90;100.00;60518.97;5024717;28;20358;-68
2021/11/18 10:56:11;;;;;;;24.95;5.75;;;;;;;-146.90;100.00;60518.97;5012183;28;20028;-68
2021/11/18 10:58:44;;;;;;;25.40;5.53;;;;;;;-146.90;100.00;60518.97;5020304;28;20037;-68
2021/11/18 11:01:32;;;;;;;35.45;6.80;;;;;;;-146.90;100.00;60518.97;5025503;28;20033;-67
2021/11/18 11:04:00;;;;;;;26.38;6.18;;;;;;;-146.90;100.00;60518.97;5019596;28;20037;-67
2021/11/18 11:06:28;;;;;;;30.08;6.22;;;;;;;-146.90;100.00;60518.97;5025372;28;20020;-66
2021/11/18 11:09:14;;;;;;;28.52;5.93;;;;;;;-146.90;100.00;60518.97;5013182;28;20113;-68
2021/11/18 11:11:42;;;;;;;29.45;5.93;;;;;;;-146.90;100.00;60518.97;5011576;28;20041;-68
2021/11/18 11:14:29;;;;;;;25.33;6.30;;;;;;;-146.90;100.00;60518.97;5025499;28;20285;-68
2021/11/18 11:17:19;;;;;;;27.77;6.93;;;;;;;-146.90;100.00;60518.97;5024605;28;20052;-68
2021/11/18 11:19:50;;;;;;;28.05;5.90;;;;;;;-146.90;100.00;60518.97;5025655;28;20028;-69
2021/11/18 11:22:25;;;;;;;25.65;6.03;;;;;;;-146.90;100.00;60518.97;5023440;28;20021;-68
2021/11/18 11:25:05;;;;;;;31.70;5.72;;;;;;;-146.90;100.00;60518.97;5024956;28;20117;-68
2021/11/18 11:27:50;;;;;;;25.15;5.80;;;;;;;-146.90;100.00;60518.97;5012816;28;20026;-68